Hurlburt Field, FL

7:33 AM CST on December 29, 2014 (GMT -0600)
Crestview | Change Station
CLOSE
Current Station
Airport
Location: Crestview,
Elevation: 194 ft
Nearby Weather Stations

Elev 194 ft 30.65 °N, 86.52 °W | Updated 34 minutes ago

Rain
Rain
59 °F
Feels Like 59 °F
N
2
Wind Variable Wind from Variable

Today
High -- | Low -- °F
--% Chance of Precip.
Yesterday
High -- | Low -- °F
Precip. -- in
6:42 AM 4:55 PM
First Quarter, 59% visible
Pressure 30.06 in
Visibility 10.0 miles
Clouds Few 6500 ft
Scattered Clouds 8000 ft
Dew Point 57 °F
Humidity 94%
Rainfall 0.27 in
Snow Depth Not available.
UV 0 out of 12
Pollen 2.70 out of 12
Air Quality Not available.
Flu Activity Not available.
SPECI KEGI 291259Z AUTO VRB02KT 10SM FEW065 SCT080 15/14 A3006 RMK AO2 RAE1256DZB1256E1259 $

More Conditions Fewer Conditions

Pressure 30.06 in
Visibility 10.0 miles
Clouds Few 6500 ft
Scattered Clouds 8000 ft
Dew Point 57 °F
Humidity 94%
Rainfall 0.27 in
Snow Depth Not available.
UV 0 out of 12
Pollen 2.70 out of 12
Air Quality Not available.
Flu Activity Not available.
SPECI KEGI 291259Z AUTO VRB02KT 10SM FEW065 SCT080 15/14 A3006 RMK AO2 RAE1256DZB1256E1259 $

More Conditions Fewer Conditions

10-Day Weather Forecast

Almanac

Astronomy

Dec. 29, 2014 Rise Set
Actual Time
Civil Twilight
Nautical Twilight
Astronomical Twilight
Moon
Length of Visible Light
Length of Day
Tomorrow will be .
, % of the Moon is Illuminated

Today's Extremes

State Highs State Lows

Community

WunderPhotos

Upload Photos

1,781,580 photos uploaded!

WunderBlogs® & News

Nearby

Air Quality

  Air Quality AQ Index Pollutant
Not available.

Snow Depth

Station Depth Elevation

Earthquake Activity

City Distance Mag. Time & Date
Minimum magnitude displayed is 2.5.

Coastal Water Temperatures

Place Temperature

Nearby Weather Stations